createdAt,value
2024-04-24T00:00:21.466Z,7.24
2024-04-24T00:04:25.717Z,7.22
2024-04-24T00:08:28.080Z,7.16
2024-04-24T00:12:30.411Z,7.09
2024-04-24T00:16:33.686Z,7.05
2024-04-24T00:20:36.110Z,7.10
2024-04-24T00:24:38.422Z,7.10
2024-04-24T00:28:40.870Z,6.86
2024-04-24T00:32:43.203Z,6.85
2024-04-24T00:36:46.206Z,6.93
2024-04-24T00:40:48.553Z,7.07
2024-04-24T00:44:50.944Z,6.92
2024-04-24T00:48:54.661Z,7.02
2024-04-24T00:52:57.681Z,6.91
2024-04-24T00:57:00.188Z,6.99
2024-04-24T01:01:03.679Z,7.02
2024-04-24T01:05:08.233Z,6.99
2024-04-24T01:09:10.625Z,7.02
2024-04-24T01:13:12.903Z,7.08
2024-04-24T01:17:18.350Z,7.25
2024-04-24T01:21:23.973Z,7.20
2024-04-24T01:25:32.791Z,6.79
2024-04-24T01:29:38.111Z,6.56
2024-04-24T01:33:43.948Z,6.52
2024-04-24T01:37:51.548Z,6.51
2024-04-24T01:41:57.012Z,6.48
2024-04-24T01:46:04.696Z,6.55
2024-04-24T01:50:12.305Z,6.71
2024-04-24T01:54:19.487Z,6.65
2024-04-24T01:58:25.848Z,6.65
2024-04-24T02:02:34.160Z,6.82
2024-04-24T02:06:39.750Z,6.97
2024-04-24T02:10:46.379Z,7.10
2024-04-24T02:14:54.784Z,7.19
2024-04-24T02:19:01.681Z,7.25
2024-04-24T02:23:08.532Z,7.34
2024-04-24T02:27:13.834Z,7.38
2024-04-24T02:31:21.675Z,7.40
2024-04-24T02:35:30.150Z,7.48
2024-04-24T02:39:36.742Z,7.47
2024-04-24T02:43:43.596Z,7.39
2024-04-24T02:47:49.598Z,7.44
2024-04-24T02:51:55.693Z,7.45
2024-04-24T02:56:01.908Z,7.47
2024-04-24T03:00:09.192Z,7.43
2024-04-24T03:04:13.240Z,7.42
2024-04-24T03:08:15.835Z,7.44
2024-04-24T03:12:18.267Z,7.31
2024-04-24T03:16:29.357Z,7.26
2024-04-24T03:20:31.792Z,7.08
2024-04-24T03:24:34.097Z,6.80
2024-04-24T03:28:36.477Z,6.70
2024-04-24T03:32:39.465Z,6.88
2024-04-24T03:36:41.987Z,7.09
2024-04-24T03:40:44.261Z,7.20
2024-04-24T03:44:46.577Z,7.26
2024-04-24T03:48:49.026Z,7.38
2024-04-24T03:52:51.478Z,7.40
2024-04-24T03:56:56.071Z,7.48
2024-04-24T04:01:00.046Z,7.50
2024-04-24T04:05:02.427Z,7.43
2024-04-24T04:09:05.035Z,7.39
2024-04-24T04:13:07.392Z,7.48
2024-04-24T04:17:09.958Z,7.50
2024-04-24T04:21:13.146Z,7.50
2024-04-24T04:25:16.110Z,7.58
2024-04-24T04:29:18.560Z,7.63
2024-04-24T04:33:21.057Z,7.67
2024-04-24T04:37:23.500Z,7.63
2024-04-24T04:41:25.914Z,7.63
2024-04-24T04:45:28.240Z,7.64
2024-04-24T04:49:30.544Z,7.65
2024-04-24T04:53:32.846Z,7.65
2024-04-24T04:57:35.310Z,7.68
2024-04-24T05:01:37.599Z,7.68
2024-04-24T05:05:39.916Z,7.72
2024-04-24T05:09:42.611Z,7.82
2024-04-24T05:13:44.993Z,7.89
2024-04-24T05:17:47.445Z,8.02
2024-04-24T05:21:49.960Z,8.10
2024-04-24T05:25:56.704Z,8.16
2024-04-24T05:29:59.184Z,8.21
2024-04-24T05:34:01.541Z,8.19
2024-04-24T05:38:04.139Z,8.23
2024-04-24T05:42:06.444Z,8.18
2024-04-24T05:46:09.083Z,8.04
2024-04-24T05:50:11.475Z,7.81
2024-04-24T05:54:13.886Z,7.73
2024-04-24T05:58:16.239Z,7.79
2024-04-24T06:02:18.705Z,7.95
2024-04-24T06:06:20.990Z,7.81
2024-04-24T06:10:23.496Z,7.84
2024-04-24T06:14:25.893Z,7.86
2024-04-24T06:18:28.347Z,7.88
2024-04-24T06:22:30.679Z,7.90
2024-04-24T06:26:33.156Z,8.13
2024-04-24T06:30:35.760Z,8.48
2024-04-24T06:34:38.236Z,8.85
2024-04-24T06:38:40.660Z,9.12
2024-04-24T06:42:42.992Z,9.55
2024-04-24T06:46:45.321Z,9.90
2024-04-24T06:50:48.183Z,10.10
2024-04-24T06:54:50.447Z,10.32
2024-04-24T06:58:52.805Z,10.55
2024-04-24T07:02:55.175Z,10.64
2024-04-24T07:06:57.567Z,10.88
2024-04-24T07:11:00.223Z,11.09
2024-04-24T07:15:02.692Z,11.16
2024-04-24T07:19:05.131Z,11.40
2024-04-24T07:23:07.619Z,11.57
2024-04-24T07:27:10.022Z,11.65
2024-04-24T07:31:12.501Z,11.86
2024-04-24T07:35:15.956Z,12.01
2024-04-24T07:39:18.515Z,11.85
2024-04-24T07:43:20.876Z,12.19
2024-04-24T07:47:23.897Z,12.24
2024-04-24T07:51:28.877Z,12.16
2024-04-24T07:55:32.100Z,12.21
2024-04-24T07:59:34.541Z,12.65
2024-04-24T08:03:37.195Z,12.64
2024-04-24T08:07:40.994Z,12.89
2024-04-24T08:11:43.637Z,12.07
2024-04-24T08:15:46.132Z,12.19
2024-04-24T08:19:48.472Z,12.05
2024-04-24T08:23:51.002Z,11.99
2024-04-24T08:27:53.421Z,12.08
2024-04-24T08:31:55.697Z,11.84
2024-04-24T08:36:11.442Z,11.87
2024-04-24T08:40:13.965Z,12.34
2024-04-24T08:44:16.718Z,12.56
2024-04-24T08:48:20.336Z,12.58
2024-04-24T08:52:24.509Z,12.43
2024-04-24T08:56:31.406Z,12.54
2024-04-24T09:00:38.925Z,12.79
2024-04-24T09:04:43.554Z,12.80
2024-04-24T09:08:47.335Z,12.77
2024-04-24T09:12:52.882Z,12.93
2024-04-24T09:16:55.601Z,13.23
2024-04-24T09:20:58.248Z,13.56
2024-04-24T09:25:00.874Z,13.64
2024-04-24T09:29:03.343Z,13.80
2024-04-24T09:33:06.737Z,13.99
2024-04-24T09:37:09.743Z,14.04
2024-04-24T09:41:12.815Z,14.06
2024-04-24T09:45:15.343Z,14.12
2024-04-24T09:49:17.786Z,13.89
2024-04-24T09:53:21.585Z,13.64
2024-04-24T09:57:31.413Z,13.99
2024-04-24T10:01:35.570Z,14.08
2024-04-24T10:05:47.543Z,13.79
2024-04-24T10:09:54.864Z,13.80
2024-04-24T10:13:59.525Z,13.47
2024-04-24T10:18:03.279Z,13.34
2024-04-24T10:22:05.980Z,13.30
2024-04-24T10:26:09.042Z,13.49
2024-04-24T10:30:12.704Z,13.81
2024-04-24T10:34:17.028Z,13.91
2024-04-24T10:38:19.314Z,13.88
2024-04-24T10:42:22.403Z,14.03
2024-04-24T10:46:26.594Z,14.15
2024-04-24T10:50:29.826Z,14.04
2024-04-24T10:54:35.266Z,14.27
2024-04-24T10:58:52.024Z,14.35
2024-04-24T11:03:00.586Z,14.54
2024-04-24T11:07:05.571Z,14.47
2024-04-24T11:11:09.753Z,14.60
2024-04-24T11:15:21.368Z,14.78
2024-04-24T11:19:23.976Z,14.97
2024-04-24T11:23:27.507Z,14.91
2024-04-24T11:27:29.966Z,15.15
2024-04-24T11:31:36.591Z,15.38
2024-04-24T11:35:42.937Z,15.54
2024-04-24T11:39:45.543Z,15.52
2024-04-24T11:43:48.048Z,14.89
2024-04-24T11:47:52.099Z,15.42
2024-04-24T11:51:55.955Z,15.73
2024-04-24T11:55:58.969Z,15.50
2024-04-24T12:00:01.981Z,14.73
2024-04-24T12:04:06.423Z,15.53
2024-04-24T12:08:09.264Z,16.08
2024-04-24T12:12:11.864Z,16.35
2024-04-24T12:16:20.289Z,16.81
2024-04-24T12:20:22.730Z,16.00
2024-04-24T12:24:26.495Z,16.24
2024-04-24T12:28:28.837Z,16.33
2024-04-24T12:32:31.443Z,16.17
2024-04-24T12:36:39.349Z,15.63
2024-04-24T12:40:41.967Z,15.92
2024-04-24T12:44:44.349Z,16.10
2024-04-24T12:48:54.477Z,16.29
2024-04-24T12:52:57.059Z,16.42
2024-04-24T12:56:59.418Z,15.99
2024-04-24T13:01:01.808Z,15.59
2024-04-24T13:05:05.487Z,15.27
2024-04-24T13:09:09.642Z,14.97
2024-04-24T13:13:12.269Z,14.85
2024-04-24T13:17:14.943Z,14.62
2024-04-24T13:21:20.217Z,14.11
2024-04-24T13:25:22.923Z,14.12
2024-04-24T13:29:26.510Z,14.20
2024-04-24T13:33:28.899Z,14.25
2024-04-24T13:37:31.228Z,14.45
2024-04-24T13:41:36.543Z,14.77
2024-04-24T13:45:40.756Z,14.74
2024-04-24T13:49:43.081Z,14.87
2024-04-24T13:53:46.685Z,15.07
2024-04-24T13:57:49.155Z,15.18
2024-04-24T14:01:51.578Z,15.00
2024-04-24T14:05:54.664Z,15.53
2024-04-24T14:09:57.116Z,15.60
2024-04-24T14:13:59.531Z,14.92
2024-04-24T14:18:01.916Z,14.81
2024-04-24T14:22:04.300Z,15.12
2024-04-24T14:26:06.702Z,15.24
2024-04-24T14:30:09.537Z,15.38
2024-04-24T14:34:13.000Z,15.66
2024-04-24T14:38:16.198Z,16.18
2024-04-24T14:42:20.691Z,16.35
2024-04-24T14:46:24.801Z,16.09
2024-04-24T14:50:27.178Z,15.85
2024-04-24T14:54:29.493Z,15.72
2024-04-24T14:58:31.915Z,15.87
2024-04-24T15:02:34.347Z,15.90
2024-04-24T15:06:41.695Z,16.05
2024-04-24T15:10:45.053Z,16.38
2024-04-24T15:14:52.288Z,16.52
2024-04-24T15:18:55.299Z,16.42
2024-04-24T15:22:58.097Z,15.79
2024-04-24T15:27:00.447Z,15.72
2024-04-24T15:31:04.129Z,15.35
2024-04-24T15:35:08.420Z,15.27
2024-04-24T15:39:10.964Z,16.12
2024-04-24T15:43:13.368Z,17.87
2024-04-24T15:47:15.803Z,17.81
2024-04-24T15:51:18.266Z,15.91
2024-04-24T15:55:22.476Z,15.55
2024-04-24T15:59:24.954Z,14.92
2024-04-24T16:03:27.388Z,13.87
2024-04-24T16:07:29.717Z,13.74
2024-04-24T16:11:32.870Z,13.49
2024-04-24T16:15:35.405Z,13.17
2024-04-24T16:19:38.842Z,13.56
2024-04-24T16:23:41.549Z,13.53
2024-04-24T16:27:43.952Z,13.15
2024-04-24T16:31:46.510Z,12.26
2024-04-24T16:35:48.881Z,12.27
2024-04-24T16:39:51.244Z,11.93
2024-04-24T16:43:53.643Z,11.54
2024-04-24T16:47:56.130Z,11.39
2024-04-24T16:51:58.681Z,11.37
2024-04-24T16:56:01.056Z,11.03
2024-04-24T17:00:03.875Z,11.20
2024-04-24T17:04:10.629Z,11.37
2024-04-24T17:08:13.101Z,11.59
2024-04-24T17:12:15.633Z,11.68
2024-04-24T17:16:18.655Z,11.36
2024-04-24T17:20:20.976Z,11.12
2024-04-24T17:24:23.319Z,11.26
2024-04-24T17:28:25.672Z,11.45
2024-04-24T17:32:28.111Z,11.17
2024-04-24T17:36:32.041Z,11.25
2024-04-24T17:40:36.094Z,11.19
2024-04-24T17:44:38.396Z,11.14
2024-04-24T17:48:40.870Z,11.17
2024-04-24T17:52:43.269Z,11.10
2024-04-24T17:56:45.579Z,11.03
2024-04-24T18:00:48.111Z,11.09
2024-04-24T18:04:50.436Z,10.83
2024-04-24T18:08:52.750Z,10.77
2024-04-24T18:12:56.146Z,11.00
2024-04-24T18:16:58.580Z,11.13
2024-04-24T18:21:03.167Z,10.92
2024-04-24T18:25:05.701Z,10.74
2024-04-24T18:29:08.218Z,10.47
2024-04-24T18:33:10.937Z,10.49
2024-04-24T18:37:13.447Z,10.21
2024-04-24T18:41:17.354Z,9.73
2024-04-24T18:45:19.735Z,9.50
2024-04-24T18:49:22.531Z,9.36
2024-04-24T18:53:25.011Z,9.26
2024-04-24T18:57:27.788Z,9.05
2024-04-24T19:01:30.172Z,8.86
2024-04-24T19:05:32.597Z,8.87
2024-04-24T19:09:36.134Z,8.80
2024-04-24T19:13:38.487Z,9.00
2024-04-24T19:17:42.903Z,9.03
2024-04-24T19:21:45.219Z,9.00
2024-04-24T19:25:47.632Z,9.10
2024-04-24T19:29:50.427Z,9.29
2024-04-24T19:33:52.787Z,9.41
2024-04-24T19:37:56.954Z,9.41
2024-04-24T19:41:59.324Z,9.45
2024-04-24T19:46:01.952Z,9.20
2024-04-24T19:50:05.016Z,9.22
2024-04-24T19:54:07.557Z,8.98
2024-04-24T19:58:09.902Z,8.90
2024-04-24T20:02:15.337Z,8.70
2024-04-24T20:06:19.621Z,8.54
2024-04-24T20:10:22.602Z,8.51
2024-04-24T20:14:25.831Z,8.56
2024-04-24T20:18:28.422Z,8.57
2024-04-24T20:22:30.924Z,8.68
2024-04-24T20:26:33.253Z,8.80
2024-04-24T20:30:36.155Z,8.87
2024-04-24T20:34:38.797Z,9.00
2024-04-24T20:38:41.474Z,9.03
2024-04-24T20:42:43.910Z,8.96
2024-04-24T20:46:46.375Z,8.71
2024-04-24T20:50:48.710Z,8.54
2024-04-24T20:54:51.168Z,8.47
2024-04-24T20:58:53.713Z,8.54
2024-04-24T21:02:56.306Z,8.51
2024-04-24T21:07:02.053Z,8.46
2024-04-24T21:11:05.376Z,8.33
2024-04-24T21:15:07.887Z,8.37
2024-04-24T21:19:10.568Z,8.52
2024-04-24T21:23:12.990Z,8.52
2024-04-24T21:27:16.001Z,8.59
2024-04-24T21:31:18.400Z,8.60
2024-04-24T21:35:20.752Z,8.64
2024-04-24T21:39:23.266Z,8.71
2024-04-24T21:43:27.121Z,8.79
2024-04-24T21:47:29.658Z,8.86
2024-04-24T21:51:32.349Z,8.94
2024-04-24T21:55:34.841Z,8.92
2024-04-24T21:59:38.792Z,8.87
2024-04-24T22:03:41.237Z,8.88
2024-04-24T22:07:43.614Z,8.89
2024-04-24T22:11:48.948Z,8.99
2024-04-24T22:15:52.068Z,9.01
2024-04-24T22:19:54.749Z,9.06
2024-04-24T22:23:57.711Z,9.08
2024-04-24T22:28:00.039Z,9.12
2024-04-24T22:32:03.190Z,9.13
2024-04-24T22:36:06.268Z,9.12
2024-04-24T22:40:09.059Z,9.01
2024-04-24T22:44:11.698Z,8.94
2024-04-24T22:48:14.086Z,8.97
2024-04-24T22:52:16.508Z,8.91
2024-04-24T22:56:18.901Z,8.90
2024-04-24T23:00:21.310Z,8.91
2024-04-24T23:04:26.547Z,8.92
2024-04-24T23:08:32.651Z,8.95
2024-04-24T23:12:39.430Z,8.91
2024-04-24T23:16:42.988Z,8.93
2024-04-24T23:20:45.401Z,8.97
2024-04-24T23:24:47.985Z,9.02
2024-04-24T23:28:50.357Z,8.92
2024-04-24T23:32:52.718Z,8.97
2024-04-24T23:36:55.089Z,8.97
2024-04-24T23:40:57.553Z,8.93
2024-04-24T23:44:59.903Z,8.94
2024-04-24T23:49:02.687Z,8.85
2024-04-24T23:53:05.295Z,8.87
2024-04-24T23:57:07.879Z,8.84
